M.y. Leander — ZCAS9 — position and weather

sailwx.info

Track history (hours):
 
Tides and Currents Weather Stations Pressure Air Temp Water Temp Dewpoint Dewpoint Depression Visibility Wind Speed Wind Dir Waves Ship Positions

M.y. Leander

Last reported at 2017-Oct-12 09:43 UTC. Time now 2017-Oct-22 21:21 UTC.
Position N 50°09' W 005°03'.
Warning: this ship's position is 10 days out of date.

Length 75 m; draft 4.5 m.

Type: Pleasure craft. MMSI: 310216000.

Date/timePositionNaut miles runAvg speedWind from/ knotsBaromVisibWave heightAir tempDewpointWater temp
2017-Oct-12 09:43N 50°09' W 005°03'0 0.0
2017-Oct-12 09:29N 50°09' W 005°03'0 0.7
2017-Oct-12 08:57N 50°09' W 005°04'0 0.0
2017-Oct-10 10:43N 50°09' W 005°03'2 5.7
2017-Oct-10 10:21N 50°08' W 005°02'2 6.0
2017-Oct-10 10:01N 50°06' W 005°00'814.4
2017-Oct-10 09:29N 50°05' W 004°49'4 9.3
2017-Oct-10 09:00N 50°06' W 004°55'5 9.1
2017-Oct-10 08:30N 50°11' W 004°54'2 4.4
2017-Oct-10 08:00N 50°09' W 004°56'4 5.8
2017-Oct-10 07:18N 50°09' W 005°02'5 5.4
2017-Oct-10 06:24N 50°05' W 004°60'4 9.0
2017-Oct-10 06:00N 50°01' W 004°59'5 9.8
2017-Oct-10 05:30N 49°57' W 005°01'611.3
2017-Oct-10 05:00N 49°51' W 005°04'611.4
2017-Oct-10 04:30N 49°46' W 005°06'611.4
2017-Oct-10 04:00N 49°40' W 005°06'1410.7
2017-Oct-10 02:42N 49°27' W 005°13'310.5
2017-Oct-10 02:22N 49°23' W 005°15'510.5
2017-Oct-10 01:53N 49°18' W 005°17'1110.3
2017-Oct-10 00:48N 49°08' W 005°21'2810.0
2017-Oct-09 21:58N 48°42' W 005°40'1311.7
2017-Oct-09 20:53N 48°31' W 005°48'1212.4
2017-Oct-09 19:53N 48°20' W 005°55'1212.7
2017-Oct-09 18:58N 48°09' W 006°03'2713.3
2017-Oct-09 16:58N 47°45' W 006°20'1513.9
2017-Oct-09 15:54N 47°32' W 006°31'44511.7
2017-Oct-08 01:56N 40°32' W 009°53'613.5
2017-Oct-08 01:30N 40°26' W 009°53'713.6
2017-Oct-08 01:00N 40°19' W 009°53'713.7
2017-Oct-08 00:28N 40°12' W 009°52'913.5
2017-Oct-07 23:49N 40°03' W 009°52'1913.2
2017-Oct-07 22:24N 39°45' W 009°52'513.2
2017-Oct-07 22:01N 39°39' W 009°52'713.3
2017-Oct-07 21:30N 39°33' W 009°51'713.2
2017-Oct-07 21:00N 39°26' W 009°51'713.1
2017-Oct-07 20:30N 39°20' W 009°51'713.1
2017-Oct-07 20:00N 39°13' W 009°50'713.3
2017-Oct-07 19:30N 39°06' W 009°50'713.2
2017-Oct-07 19:00N 38°60' W 009°50'713.1
2017-Oct-07 18:31N 38°53' W 009°50'612.9
2017-Oct-07 18:00N 38°47' W 009°50'713.2
2017-Oct-07 17:31N 38°40' W 009°50'713.8
2017-Oct-07 17:00N 38°34' W 009°47'713.1
2017-Oct-07 16:31N 38°27' W 009°45'713.1
2017-Oct-07 16:01N 38°21' W 009°44'713.0
2017-Oct-07 15:31N 38°14' W 009°43'713.3
2017-Oct-07 15:00N 38°08' W 009°40'713.5
2017-Oct-07 14:30N 38°01' W 009°38'713.4
2017-Oct-07 14:00N 37°55' W 009°36'713.6
2017-Oct-07 13:31N 37°48' W 009°35'714.0
2017-Oct-07 13:01N 37°41' W 009°33'2613.6
2017-Oct-07 11:07N 37°16' W 009°26'213.2
2017-Oct-07 10:59N 37°14' W 009°25'1113.0
2017-Oct-07 10:08N 37°04' W 009°22'412.7
2017-Oct-07 09:50N 37°00' W 009°20'512.6
2017-Oct-07 09:25N 36°55' W 009°19'512.2
2017-Oct-07 09:00N 36°51' W 009°15'612.1
2017-Oct-07 08:31N 36°46' W 009°10'612.3
2017-Oct-07 08:00N 36°43' W 009°04'714.6
2017-Oct-07 07:30N 36°41' W 008°55'714.5
2017-Oct-07 07:01N 36°39' W 008°46'714.7
2017-Oct-07 06:30N 36°37' W 008°37'714.6
2017-Oct-07 06:01N 36°36' W 008°28'814.5
2017-Oct-07 05:28N 36°34' W 008°19'714.9
2017-Oct-07 05:00N 36°32' W 008°10'714.9
2017-Oct-07 04:30N 36°30' W 008°02'815.1
2017-Oct-07 04:00N 36°28' W 007°53'815.2
2017-Oct-07 03:30N 36°25' W 007°44'815.1
2017-Oct-07 03:00N 36°23' W 007°35'9914.1
2017-Oct-06 19:58N 35°58' W 005°36'810.5
2017-Oct-06 19:12N 36°00' W 005°26'2 9.8
2017-Oct-06 19:01N 36°01' W 005°24'612.2
2017-Oct-06 18:30N 36°05' W 005°18'914.8
2017-Oct-06 17:56N 36°10' W 005°10'614.9
2017-Oct-06 17:30N 36°14' W 005°03'19513.0
2017-Oct-06 02:25N 37°03' W 001°08'615.4
2017-Oct-06 02:00N 37°06' W 001°01'815.2
2017-Oct-06 01:28N 37°11' W 000°53'715.1
2017-Oct-06 01:00N 37°15' W 000°46'815.2
2017-Oct-06 00:29N 37°20' W 000°38'915.3
2017-Oct-05 23:52N 37°26' W 000°28'615.3
2017-Oct-05 23:29N 37°29' W 000°22'915.3
2017-Oct-05 22:55N 37°34' W 000°13'615.4
2017-Oct-05 22:30N 37°38' W 000°07'2215.1
2017-Oct-05 21:04N 37°51' E 000°15'214.7
2017-Oct-05 20:58N 37°52' E 000°16'13014.6
2017-Oct-05 12:04N 39°18' E 002°22'314.8
2017-Oct-05 11:52N 39°20' E 002°24'514.8
2017-Oct-05 11:30N 39°24' E 002°29'714.8
2017-Oct-05 11:00N 39°30' E 002°35'4 8.6
2017-Oct-05 10:31N 39°33' E 002°38'0 0.0
2017-Oct-05 10:00N 39°33' E 002°38'0 0.0
2017-Oct-05 09:30N 39°33' E 002°38'0 0.0
2017-Oct-05 09:00N 39°33' E 002°38'0 0.0
2017-Oct-05 08:30N 39°33' E 002°38'0 0.0
2017-Oct-05 08:00N 39°33' E 002°38'0 0.0
2017-Oct-05 07:30N 39°33' E 002°38'0 0.0
2017-Oct-05 07:00N 39°33' E 002°38'0 0.0
2017-Oct-05 06:30N 39°33' E 002°38'0 0.0
2017-Oct-05 06:00N 39°33' E 002°38'0 0.0
2017-Oct-05 05:30N 39°33' E 002°38'0 0.0
2017-Oct-05 05:00N 39°33' E 002°38'0 0.0
2017-Oct-05 04:30N 39°33' E 002°38'0 0.0
2017-Oct-05 04:00N 39°33' E 002°38'0 0.0
2017-Oct-05 03:30N 39°33' E 002°38'0 0.0
2017-Oct-05 03:00N 39°33' E 002°38'0 0.0
2017-Oct-05 02:30N 39°33' E 002°38'0 0.0
2017-Oct-05 02:00N 39°33' E 002°38'0 0.0
2017-Oct-05 01:30N 39°33' E 002°38'0 0.0
2017-Oct-05 01:00N 39°33' E 002°38'0 0.0
2017-Oct-05 00:30N 39°33' E 002°38'0 0.0
2017-Oct-05 00:00N 39°33' E 002°38'0 0.0
2017-Oct-04 23:30N 39°33' E 002°38'0 0.0
2017-Oct-04 23:00N 39°33' E 002°38'0 0.0
2017-Oct-04 22:30N 39°33' E 002°38'0 0.0
2017-Oct-04 22:00N 39°33' E 002°38'0 0.0
2017-Oct-04 21:30N 39°33' E 002°38'0 0.0
2017-Oct-04 21:00N 39°33' E 002°38'0 0.0
2017-Oct-04 20:30N 39°33' E 002°38'0 0.0
2017-Oct-04 20:00N 39°33' E 002°38'0 0.0
2017-Oct-04 19:30N 39°33' E 002°38'0 0.0
2017-Oct-04 19:00N 39°33' E 002°38'0 0.0
2017-Oct-04 18:30N 39°33' E 002°38'0 0.0
2017-Oct-04 18:00N 39°33' E 002°38'0 0.0
2017-Oct-04 17:30N 39°33' E 002°38'0 0.0
2017-Oct-04 17:00N 39°33' E 002°38'0 0.0
2017-Oct-04 16:30N 39°33' E 002°38'0 0.0
2017-Oct-04 16:00N 39°33' E 002°38'0 0.0
2017-Oct-04 15:30N 39°33' E 002°38'0 0.0
2017-Oct-04 15:00N 39°33' E 002°38'0 0.0
2017-Oct-04 14:30N 39°33' E 002°38'0 0.0
2017-Oct-04 14:00N 39°33' E 002°38'0 0.0
2017-Oct-04 13:30N 39°33' E 002°38'0 0.0
2017-Oct-04 13:00N 39°33' E 002°38'0 0.0
2017-Oct-04 12:30N 39°33' E 002°38'0 0.0
2017-Oct-04 12:00N 39°33' E 002°38'0 0.0
2017-Oct-04 11:30N 39°33' E 002°38'0 0.0
2017-Oct-04 11:00N 39°33' E 002°38'0 0.0
2017-Oct-04 10:30N 39°33' E 002°38'0 0.0
2017-Oct-04 10:00N 39°33' E 002°38'0 0.0
2017-Oct-04 09:30N 39°33' E 002°38'0 0.0
2017-Oct-04 09:00N 39°33' E 002°38'0 0.0
2017-Oct-04 08:30N 39°33' E 002°38'0 0.0
2017-Oct-04 08:00N 39°33' E 002°38'0 0.0
2017-Oct-04 07:30N 39°33' E 002°38'0 0.0
2017-Oct-04 07:00N 39°33' E 002°38'0 0.0
2017-Oct-04 06:30N 39°33' E 002°38'0 0.0
2017-Oct-04 06:00N 39°33' E 002°38'0 0.0
2017-Oct-04 05:30N 39°33' E 002°38'0 0.0
2017-Oct-04 05:00N 39°33' E 002°38'0 0.0
2017-Oct-04 04:30N 39°33' E 002°38'0 0.0
2017-Oct-04 04:00N 39°33' E 002°38'0 0.0
2017-Oct-04 03:30N 39°33' E 002°38'0 0.0
2017-Oct-04 03:00N 39°33' E 002°38'0 0.0
2017-Oct-04 02:30N 39°33' E 002°38'0 0.0
2017-Oct-04 02:00N 39°33' E 002°38'0 0.0
2017-Oct-04 01:27N 39°33' E 002°38'0 0.0
2017-Oct-04 01:00N 39°33' E 002°38'0 0.0
2017-Oct-04 00:30N 39°33' E 002°38'0 0.0
2017-Oct-04 00:00N 39°33' E 002°38'0 0.0
2017-Oct-03 23:30N 39°33' E 002°38'0 0.0
2017-Oct-03 23:00N 39°33' E 002°38'0 0.0
2017-Oct-03 22:30N 39°33' E 002°38'0 0.0
2017-Oct-03 22:00N 39°33' E 002°38'0 0.0
2017-Oct-03 21:30N 39°33' E 002°38'0 0.0
2017-Oct-03 21:00N 39°33' E 002°38'0 0.0
2017-Oct-03 20:30N 39°33' E 002°38'0 0.0
2017-Oct-03 20:00N 39°33' E 002°38'0 0.0
2017-Oct-03 19:30N 39°33' E 002°38'0 0.0
2017-Oct-03 19:00N 39°33' E 002°38'0 0.0
2017-Oct-03 18:30N 39°33' E 002°38'0 0.0
2017-Oct-03 18:00N 39°33' E 002°38'0 0.0
2017-Oct-03 17:30N 39°33' E 002°38'0 0.0
2017-Oct-03 17:00N 39°33' E 002°38'0 0.0
2017-Oct-03 16:30N 39°33' E 002°38'0 0.0
2017-Oct-03 16:00N 39°33' E 002°38'0 0.0
2017-Oct-03 15:30N 39°33' E 002°38'0 0.0
2017-Oct-03 15:00N 39°33' E 002°38'0 0.0
2017-Oct-03 14:00N 39°33' E 002°38'0 0.0
2017-Oct-03 13:30N 39°33' E 002°38'0 0.0
2017-Oct-03 13:00N 39°33' E 002°38'0 0.0
2017-Oct-03 12:30N 39°33' E 002°38'0 0.0
2017-Oct-03 12:00N 39°33' E 002°38'0 0.0
2017-Oct-03 11:30N 39°33' E 002°38'0 0.0
2017-Oct-03 11:00N 39°33' E 002°38'0 0.0
2017-Oct-03 10:30N 39°33' E 002°38'0 0.0
2017-Oct-03 10:00N 39°33' E 002°38'0 0.0
2017-Oct-03 09:30N 39°33' E 002°38'0 0.0
2017-Oct-03 09:00N 39°33' E 002°38'0 0.0
2017-Oct-03 08:30N 39°33' E 002°38'0 0.0
2017-Oct-03 08:00N 39°33' E 002°38'0 0.0
2017-Oct-03 07:18N 39°33' E 002°38'0 0.0
2017-Oct-03 07:00N 39°33' E 002°38'0 0.0
2017-Oct-03 06:30N 39°33' E 002°38'0 0.0
2017-Oct-03 06:00N 39°33' E 002°38'0 0.0
2017-Oct-03 05:30N 39°33' E 002°38'0 0.0
2017-Oct-03 04:54N 39°33' E 002°38'0 0.0
2017-Oct-03 04:30N 39°33' E 002°38'0 0.0
2017-Oct-03 04:00N 39°33' E 002°38'0 0.0
2017-Oct-03 03:30N 39°33' E 002°38'0 0.0
2017-Oct-03 03:00N 39°33' E 002°38'0 0.0
2017-Oct-03 02:30N 39°33' E 002°38'0 0.0
2017-Oct-03 02:00N 39°33' E 002°38'0 0.0
2017-Oct-03 01:27N 39°33' E 002°38'0 0.0
2017-Oct-03 01:00N 39°33' E 002°38'0 0.0
2017-Oct-03 00:30N 39°33' E 002°38'0 0.0
2017-Oct-03 00:00N 39°33' E 002°38'0 0.0
2017-Oct-02 23:30N 39°33' E 002°38'0 0.0
2017-Oct-02 23:00N 39°33' E 002°38'0 0.0
2017-Oct-02 22:30N 39°33' E 002°38'0 0.0
2017-Oct-02 22:00N 39°33' E 002°38'0 0.0
2017-Oct-02 21:30N 39°33' E 002°38'0 0.0
2017-Oct-02 21:00N 39°33' E 002°38'0 0.0
2017-Oct-02 20:30N 39°33' E 002°38'0 0.0
2017-Oct-02 20:00N 39°33' E 002°38'0 0.0
2017-Oct-02 19:30N 39°33' E 002°38'0 0.0
2017-Oct-02 19:00N 39°33' E 002°38'0 0.0
2017-Oct-02 18:30N 39°33' E 002°38'0 0.0
2017-Oct-02 18:00N 39°33' E 002°38'0 0.0
2017-Oct-02 17:30N 39°33' E 002°38'0 0.0
2017-Oct-02 17:00N 39°33' E 002°38'0 0.0
2017-Oct-02 16:30N 39°33' E 002°38'0 0.0
2017-Oct-02 16:00N 39°33' E 002°38'0 0.0
2017-Oct-02 15:30N 39°33' E 002°38'0 0.0
2017-Oct-02 15:00N 39°33' E 002°38'0 0.0
2017-Oct-02 14:30N 39°33' E 002°38'0 0.0
2017-Oct-02 14:00N 39°33' E 002°38'0 0.0
2017-Oct-02 13:30N 39°33' E 002°38'0 0.0
2017-Oct-02 13:00N 39°33' E 002°38'0 0.0
2017-Oct-02 12:27N 39°33' E 002°38'0 0.0
2017-Oct-02 12:00N 39°33' E 002°38'0 0.0
2017-Oct-02 11:30N 39°33' E 002°38'0 0.0
2017-Oct-02 11:00N 39°33' E 002°38'0 0.0
2017-Oct-02 10:15N 39°33' E 002°38'0 0.0
2017-Oct-02 10:00N 39°33' E 002°38'  
Track history (hours):
 
Tides and Currents Weather Stations Pressure Air Temp Water Temp Dewpoint Dewpoint Depression Visibility Wind Speed Wind Dir Waves Ship Positions

M.y. Leander

Last reported at 2017-Oct-12 09:43 UTC. Time now 2017-Oct-22 21:21 UTC.
Position N 50°09' W 005°03'.
Warning: this ship's position is 10 days out of date.

Length 75 m; draft 4.5 m.

Type: Pleasure craft. MMSI: 310216000.

Date/timePositionNaut miles runAvg speedWind from/ knotsBaromVisibWave heightAir tempDewpointWater temp
2017-Oct-12 09:43N 50°09' W 005°03'0 0.0
2017-Oct-12 09:29N 50°09' W 005°03'0 0.7
2017-Oct-12 08:57N 50°09' W 005°04'0 0.0
2017-Oct-10 10:43N 50°09' W 005°03'2 5.7
2017-Oct-10 10:21N 50°08' W 005°02'2 6.0
2017-Oct-10 10:01N 50°06' W 005°00'814.4
2017-Oct-10 09:29N 50°05' W 004°49'4 9.3
2017-Oct-10 09:00N 50°06' W 004°55'5 9.1
2017-Oct-10 08:30N 50°11' W 004°54'2 4.4
2017-Oct-10 08:00N 50°09' W 004°56'4 5.8
2017-Oct-10 07:18N 50°09' W 005°02'5 5.4
2017-Oct-10 06:24N 50°05' W 004°60'4 9.0
2017-Oct-10 06:00N 50°01' W 004°59'5 9.8
2017-Oct-10 05:30N 49°57' W 005°01'611.3
2017-Oct-10 05:00N 49°51' W 005°04'611.4
2017-Oct-10 04:30N 49°46' W 005°06'611.4
2017-Oct-10 04:00N 49°40' W 005°06'1410.7
2017-Oct-10 02:42N 49°27' W 005°13'310.5
2017-Oct-10 02:22N 49°23' W 005°15'510.5
2017-Oct-10 01:53N 49°18' W 005°17'1110.3
2017-Oct-10 00:48N 49°08' W 005°21'2810.0
2017-Oct-09 21:58N 48°42' W 005°40'1311.7
2017-Oct-09 20:53N 48°31' W 005°48'1212.4
2017-Oct-09 19:53N 48°20' W 005°55'1212.7
2017-Oct-09 18:58N 48°09' W 006°03'2713.3
2017-Oct-09 16:58N 47°45' W 006°20'1513.9
2017-Oct-09 15:54N 47°32' W 006°31'44511.7
2017-Oct-08 01:56N 40°32' W 009°53'613.5
2017-Oct-08 01:30N 40°26' W 009°53'713.6
2017-Oct-08 01:00N 40°19' W 009°53'713.7
2017-Oct-08 00:28N 40°12' W 009°52'913.5
2017-Oct-07 23:49N 40°03' W 009°52'1913.2
2017-Oct-07 22:24N 39°45' W 009°52'513.2
2017-Oct-07 22:01N 39°39' W 009°52'713.3
2017-Oct-07 21:30N 39°33' W 009°51'713.2
2017-Oct-07 21:00N 39°26' W 009°51'713.1
2017-Oct-07 20:30N 39°20' W 009°51'713.1
2017-Oct-07 20:00N 39°13' W 009°50'713.3
2017-Oct-07 19:30N 39°06' W 009°50'713.2
2017-Oct-07 19:00N 38°60' W 009°50'713.1
2017-Oct-07 18:31N 38°53' W 009°50'612.9
2017-Oct-07 18:00N 38°47' W 009°50'713.2
2017-Oct-07 17:31N 38°40' W 009°50'713.8
2017-Oct-07 17:00N 38°34' W 009°47'713.1
2017-Oct-07 16:31N 38°27' W 009°45'713.1
2017-Oct-07 16:01N 38°21' W 009°44'713.0
2017-Oct-07 15:31N 38°14' W 009°43'713.3
2017-Oct-07 15:00N 38°08' W 009°40'713.5
2017-Oct-07 14:30N 38°01' W 009°38'713.4
2017-Oct-07 14:00N 37°55' W 009°36'713.6
2017-Oct-07 13:31N 37°48' W 009°35'714.0
2017-Oct-07 13:01N 37°41' W 009°33'2613.6
2017-Oct-07 11:07N 37°16' W 009°26'213.2
2017-Oct-07 10:59N 37°14' W 009°25'1113.0
2017-Oct-07 10:08N 37°04' W 009°22'412.7
2017-Oct-07 09:50N 37°00' W 009°20'512.6
2017-Oct-07 09:25N 36°55' W 009°19'512.2
2017-Oct-07 09:00N 36°51' W 009°15'612.1
2017-Oct-07 08:31N 36°46' W 009°10'612.3
2017-Oct-07 08:00N 36°43' W 009°04'714.6
2017-Oct-07 07:30N 36°41' W 008°55'714.5
2017-Oct-07 07:01N 36°39' W 008°46'714.7
2017-Oct-07 06:30N 36°37' W 008°37'714.6
2017-Oct-07 06:01N 36°36' W 008°28'814.5
2017-Oct-07 05:28N 36°34' W 008°19'714.9
2017-Oct-07 05:00N 36°32' W 008°10'714.9
2017-Oct-07 04:30N 36°30' W 008°02'815.1
2017-Oct-07 04:00N 36°28' W 007°53'815.2
2017-Oct-07 03:30N 36°25' W 007°44'815.1
2017-Oct-07 03:00N 36°23' W 007°35'9914.1
2017-Oct-06 19:58N 35°58' W 005°36'810.5
2017-Oct-06 19:12N 36°00' W 005°26'2 9.8
2017-Oct-06 19:01N 36°01' W 005°24'612.2
2017-Oct-06 18:30N 36°05' W 005°18'914.8
2017-Oct-06 17:56N 36°10' W 005°10'614.9
2017-Oct-06 17:30N 36°14' W 005°03'19513.0
2017-Oct-06 02:25N 37°03' W 001°08'615.4
2017-Oct-06 02:00N 37°06' W 001°01'815.2
2017-Oct-06 01:28N 37°11' W 000°53'715.1
2017-Oct-06 01:00N 37°15' W 000°46'815.2
2017-Oct-06 00:29N 37°20' W 000°38'915.3
2017-Oct-05 23:52N 37°26' W 000°28'615.3
2017-Oct-05 23:29N 37°29' W 000°22'915.3
2017-Oct-05 22:55N 37°34' W 000°13'615.4
2017-Oct-05 22:30N 37°38' W 000°07'2215.1
2017-Oct-05 21:04N 37°51' E 000°15'214.7
2017-Oct-05 20:58N 37°52' E 000°16'13014.6
2017-Oct-05 12:04N 39°18' E 002°22'314.8
2017-Oct-05 11:52N 39°20' E 002°24'514.8
2017-Oct-05 11:30N 39°24' E 002°29'714.8
2017-Oct-05 11:00N 39°30' E 002°35'4 8.6
2017-Oct-05 10:31N 39°33' E 002°38'0 0.0
2017-Oct-05 10:00N 39°33' E 002°38'0 0.0
2017-Oct-05 09:30N 39°33' E 002°38'0 0.0
2017-Oct-05 09:00N 39°33' E 002°38'0 0.0
2017-Oct-05 08:30N 39°33' E 002°38'0 0.0
2017-Oct-05 08:00N 39°33' E 002°38'0 0.0
2017-Oct-05 07:30N 39°33' E 002°38'0 0.0
2017-Oct-05 07:00N 39°33' E 002°38'0 0.0
2017-Oct-05 06:30N 39°33' E 002°38'0 0.0
2017-Oct-05 06:00N 39°33' E 002°38'0 0.0
2017-Oct-05 05:30N 39°33' E 002°38'0 0.0
2017-Oct-05 05:00N 39°33' E 002°38'0 0.0
2017-Oct-05 04:30N 39°33' E 002°38'0 0.0
2017-Oct-05 04:00N 39°33' E 002°38'0 0.0
2017-Oct-05 03:30N 39°33' E 002°38'0 0.0
2017-Oct-05 03:00N 39°33' E 002°38'0 0.0
2017-Oct-05 02:30N 39°33' E 002°38'0 0.0
2017-Oct-05 02:00N 39°33' E 002°38'0 0.0
2017-Oct-05 01:30N 39°33' E 002°38'0 0.0
2017-Oct-05 01:00N 39°33' E 002°38'0 0.0
2017-Oct-05 00:30N 39°33' E 002°38'0 0.0
2017-Oct-05 00:00N 39°33' E 002°38'0 0.0
2017-Oct-04 23:30N 39°33' E 002°38'0 0.0
2017-Oct-04 23:00N 39°33' E 002°38'0 0.0
2017-Oct-04 22:30N 39°33' E 002°38'0 0.0
2017-Oct-04 22:00N 39°33' E 002°38'0 0.0
2017-Oct-04 21:30N 39°33' E 002°38'0 0.0
2017-Oct-04 21:00N 39°33' E 002°38'0 0.0
2017-Oct-04 20:30N 39°33' E 002°38'0 0.0
2017-Oct-04 20:00N 39°33' E 002°38'0 0.0
2017-Oct-04 19:30N 39°33' E 002°38'0 0.0
2017-Oct-04 19:00N 39°33' E 002°38'0 0.0
2017-Oct-04 18:30N 39°33' E 002°38'0 0.0
2017-Oct-04 18:00N 39°33' E 002°38'0 0.0
2017-Oct-04 17:30N 39°33' E 002°38'0 0.0
2017-Oct-04 17:00N 39°33' E 002°38'0 0.0
2017-Oct-04 16:30N 39°33' E 002°38'0 0.0
2017-Oct-04 16:00N 39°33' E 002°38'0 0.0
2017-Oct-04 15:30N 39°33' E 002°38'0 0.0
2017-Oct-04 15:00N 39°33' E 002°38'0 0.0
2017-Oct-04 14:30N 39°33' E 002°38'0 0.0
2017-Oct-04 14:00N 39°33' E 002°38'0 0.0
2017-Oct-04 13:30N 39°33' E 002°38'0 0.0
2017-Oct-04 13:00N 39°33' E 002°38'0 0.0
2017-Oct-04 12:30N 39°33' E 002°38'0 0.0
2017-Oct-04 12:00N 39°33' E 002°38'0 0.0
2017-Oct-04 11:30N 39°33' E 002°38'0 0.0
2017-Oct-04 11:00N 39°33' E 002°38'0 0.0
2017-Oct-04 10:30N 39°33' E 002°38'0 0.0
2017-Oct-04 10:00N 39°33' E 002°38'0 0.0
2017-Oct-04 09:30N 39°33' E 002°38'0 0.0
2017-Oct-04 09:00N 39°33' E 002°38'0 0.0
2017-Oct-04 08:30N 39°33' E 002°38'0 0.0
2017-Oct-04 08:00N 39°33' E 002°38'0 0.0
2017-Oct-04 07:30N 39°33' E 002°38'0 0.0
2017-Oct-04 07:00N 39°33' E 002°38'0 0.0
2017-Oct-04 06:30N 39°33' E 002°38'0 0.0
2017-Oct-04 06:00N 39°33' E 002°38'0 0.0
2017-Oct-04 05:30N 39°33' E 002°38'0 0.0
2017-Oct-04 05:00N 39°33' E 002°38'0 0.0
2017-Oct-04 04:30N 39°33' E 002°38'0 0.0
2017-Oct-04 04:00N 39°33' E 002°38'0 0.0
2017-Oct-04 03:30N 39°33' E 002°38'0 0.0
2017-Oct-04 03:00N 39°33' E 002°38'0 0.0
2017-Oct-04 02:30N 39°33' E 002°38'0 0.0
2017-Oct-04 02:00N 39°33' E 002°38'0 0.0
2017-Oct-04 01:27N 39°33' E 002°38'0 0.0
2017-Oct-04 01:00N 39°33' E 002°38'0 0.0
2017-Oct-04 00:30N 39°33' E 002°38'0 0.0
2017-Oct-04 00:00N 39°33' E 002°38'0 0.0
2017-Oct-03 23:30N 39°33' E 002°38'0 0.0
2017-Oct-03 23:00N 39°33' E 002°38'0 0.0
2017-Oct-03 22:30N 39°33' E 002°38'0 0.0
2017-Oct-03 22:00N 39°33' E 002°38'0 0.0
2017-Oct-03 21:30N 39°33' E 002°38'0 0.0
2017-Oct-03 21:00N 39°33' E 002°38'0 0.0
2017-Oct-03 20:30N 39°33' E 002°38'0 0.0
2017-Oct-03 20:00N 39°33' E 002°38'0 0.0
2017-Oct-03 19:30N 39°33' E 002°38'0 0.0
2017-Oct-03 19:00N 39°33' E 002°38'0 0.0
2017-Oct-03 18:30N 39°33' E 002°38'0 0.0
2017-Oct-03 18:00N 39°33' E 002°38'0 0.0
2017-Oct-03 17:30N 39°33' E 002°38'0 0.0
2017-Oct-03 17:00N 39°33' E 002°38'0 0.0
2017-Oct-03 16:30N 39°33' E 002°38'0 0.0
2017-Oct-03 16:00N 39°33' E 002°38'0 0.0
2017-Oct-03 15:30N 39°33' E 002°38'0 0.0
2017-Oct-03 15:00N 39°33' E 002°38'0 0.0
2017-Oct-03 14:00N 39°33' E 002°38'0 0.0
2017-Oct-03 13:30N 39°33' E 002°38'0 0.0
2017-Oct-03 13:00N 39°33' E 002°38'0 0.0
2017-Oct-03 12:30N 39°33' E 002°38'0 0.0
2017-Oct-03 12:00N 39°33' E 002°38'0 0.0
2017-Oct-03 11:30N 39°33' E 002°38'0 0.0
2017-Oct-03 11:00N 39°33' E 002°38'0 0.0
2017-Oct-03 10:30N 39°33' E 002°38'0 0.0
2017-Oct-03 10:00N 39°33' E 002°38'0 0.0
2017-Oct-03 09:30N 39°33' E 002°38'0 0.0
2017-Oct-03 09:00N 39°33' E 002°38'0 0.0
2017-Oct-03 08:30N 39°33' E 002°38'0 0.0
2017-Oct-03 08:00N 39°33' E 002°38'0 0.0
2017-Oct-03 07:18N 39°33' E 002°38'0 0.0
2017-Oct-03 07:00N 39°33' E 002°38'0 0.0
2017-Oct-03 06:30N 39°33' E 002°38'0 0.0
2017-Oct-03 06:00N 39°33' E 002°38'0 0.0
2017-Oct-03 05:30N 39°33' E 002°38'0 0.0
2017-Oct-03 04:54N 39°33' E 002°38'0 0.0
2017-Oct-03 04:30N 39°33' E 002°38'0 0.0
2017-Oct-03 04:00N 39°33' E 002°38'0 0.0
2017-Oct-03 03:30N 39°33' E 002°38'0 0.0
2017-Oct-03 03:00N 39°33' E 002°38'0 0.0
2017-Oct-03 02:30N 39°33' E 002°38'0 0.0
2017-Oct-03 02:00N 39°33' E 002°38'0 0.0
2017-Oct-03 01:27N 39°33' E 002°38'0 0.0
2017-Oct-03 01:00N 39°33' E 002°38'0 0.0
2017-Oct-03 00:30N 39°33' E 002°38'0 0.0
2017-Oct-03 00:00N 39°33' E 002°38'0 0.0
2017-Oct-02 23:30N 39°33' E 002°38'0 0.0
2017-Oct-02 23:00N 39°33' E 002°38'0 0.0
2017-Oct-02 22:30N 39°33' E 002°38'0 0.0
2017-Oct-02 22:00N 39°33' E 002°38'0 0.0
2017-Oct-02 21:30N 39°33' E 002°38'0 0.0
2017-Oct-02 21:00N 39°33' E 002°38'0 0.0
2017-Oct-02 20:30N 39°33' E 002°38'0 0.0
2017-Oct-02 20:00N 39°33' E 002°38'0 0.0
2017-Oct-02 19:30N 39°33' E 002°38'0 0.0
2017-Oct-02 19:00N 39°33' E 002°38'0 0.0
2017-Oct-02 18:30N 39°33' E 002°38'0 0.0
2017-Oct-02 18:00N 39°33' E 002°38'0 0.0
2017-Oct-02 17:30N 39°33' E 002°38'0 0.0
2017-Oct-02 17:00N 39°33' E 002°38'0 0.0
2017-Oct-02 16:30N 39°33' E 002°38'0 0.0
2017-Oct-02 16:00N 39°33' E 002°38'0 0.0
2017-Oct-02 15:30N 39°33' E 002°38'0 0.0
2017-Oct-02 15:00N 39°33' E 002°38'0 0.0
2017-Oct-02 14:30N 39°33' E 002°38'0 0.0
2017-Oct-02 14:00N 39°33' E 002°38'0 0.0
2017-Oct-02 13:30N 39°33' E 002°38'0 0.0
2017-Oct-02 13:00N 39°33' E 002°38'0 0.0
2017-Oct-02 12:27N 39°33' E 002°38'0 0.0
2017-Oct-02 12:00N 39°33' E 002°38'0 0.0
2017-Oct-02 11:30N 39°33' E 002°38'0 0.0
2017-Oct-02 11:00N 39°33' E 002°38'0 0.0
2017-Oct-02 10:15N 39°33' E 002°38'0 0.0
2017-Oct-02 10:00N 39°33' E 002°38'  

Dump ship's entire track history